Terminal Aerodrome Forecast
Issued by NWS

Home | Current Version | Previous Version | Graphics & Text | Print | Product List | Glossary On
Versions: 1 2 3 4 5 6 7 8 9 10 11 12 13 14 15
000
FTUS45 KGGW 201127
TAFSDY
TAF
KSDY 201127Z 2012/2112 00000KT P6SM BKN100
     FM201500 14006KT P6SM BKN090
     FM210200 12007KT P6SM SCT150
     FM210800 20006KT P6SM SCT110
     FM211000 25009KT P6SM SCT090=

USA.gov is the U.S. government's official web portal to all federal, state and local government web resources and services.